createdAt,value
2022-11-16T00:01:25.236Z,14.33
2022-11-16T00:03:38.950Z,14.26
2022-11-16T00:05:52.210Z,14.18
2022-11-16T00:08:05.932Z,14.12
2022-11-16T00:10:19.560Z,14.06
2022-11-16T00:12:32.908Z,14.00
2022-11-16T00:14:46.261Z,13.92
2022-11-16T00:16:59.469Z,13.86
2022-11-16T00:19:14.400Z,13.80
2022-11-16T00:21:27.711Z,13.74
2022-11-16T00:23:42.087Z,13.68
2022-11-16T00:25:55.634Z,13.63
2022-11-16T00:28:09.152Z,13.59
2022-11-16T00:30:22.891Z,13.54
2022-11-16T00:32:36.346Z,13.46
2022-11-16T00:34:49.661Z,13.37
2022-11-16T00:37:02.953Z,13.30
2022-11-16T00:39:17.567Z,13.22
2022-11-16T00:41:32.840Z,13.14
2022-11-16T00:43:46.141Z,13.06
2022-11-16T00:46:00.043Z,12.98
2022-11-16T00:48:14.002Z,12.90
2022-11-16T00:50:27.426Z,12.81
2022-11-16T00:52:40.911Z,12.74
2022-11-16T00:54:54.171Z,12.65
2022-11-16T00:57:07.518Z,12.61
2022-11-16T00:59:20.775Z,12.56
2022-11-16T01:01:34.207Z,12.52
2022-11-16T01:03:48.899Z,12.47
2022-11-16T01:06:06.543Z,12.39
2022-11-16T01:08:19.910Z,12.29
2022-11-16T01:10:34.878Z,12.21
2022-11-16T01:12:49.188Z,12.13
2022-11-16T01:15:02.763Z,12.06
2022-11-16T01:17:16.540Z,12.01
2022-11-16T01:19:29.868Z,11.94
2022-11-16T01:21:43.280Z,11.87
2022-11-16T01:23:58.274Z,11.79
2022-11-16T01:26:12.016Z,11.70
2022-11-16T01:28:27.370Z,11.67
2022-11-16T01:30:40.778Z,11.68
2022-11-16T01:32:56.040Z,11.67
2022-11-16T01:35:10.022Z,11.66
2022-11-16T01:37:23.709Z,11.67
2022-11-16T01:39:37.712Z,11.70
2022-11-16T01:41:51.212Z,11.69
2022-11-16T01:44:06.063Z,11.64
2022-11-16T01:46:33.043Z,11.57
2022-11-16T01:48:47.745Z,11.49
2022-11-16T01:51:01.745Z,11.41
2022-11-16T01:53:17.332Z,11.33
2022-11-16T01:55:40.741Z,11.30
2022-11-16T01:58:21.697Z,11.29
2022-11-16T02:00:37.183Z,11.29
2022-11-16T02:03:03.538Z,11.26
2022-11-16T02:05:36.955Z,11.15
2022-11-16T02:08:17.774Z,11.02
2022-11-16T02:10:47.242Z,10.88
2022-11-16T02:13:17.152Z,10.75
2022-11-16T02:15:36.832Z,10.70
2022-11-16T02:18:18.885Z,10.75
2022-11-16T02:20:57.160Z,10.78
2022-11-16T02:23:30.073Z,10.82
2022-11-16T02:25:42.683Z,10.83
2022-11-16T02:28:18.163Z,10.85
2022-11-16T02:30:31.455Z,10.92
2022-11-16T02:32:52.099Z,10.97
2022-11-16T02:35:11.395Z,10.98
2022-11-16T02:37:27.894Z,10.96
2022-11-16T02:39:43.638Z,10.94
2022-11-16T02:41:58.138Z,10.91
2022-11-16T02:44:15.614Z,10.89
2022-11-16T02:46:34.717Z,10.86
2022-11-16T02:48:52.181Z,10.82
2022-11-16T02:51:07.782Z,10.77
2022-11-16T02:53:21.618Z,10.72
2022-11-16T02:55:39.901Z,10.64
2022-11-16T02:57:58.012Z,10.56
2022-11-16T03:00:15.740Z,10.47
2022-11-16T03:02:33.783Z,10.39
2022-11-16T03:04:50.806Z,10.36
2022-11-16T03:07:07.621Z,10.38
2022-11-16T03:09:25.044Z,10.44
2022-11-16T03:11:57.958Z,10.49
2022-11-16T03:14:14.890Z,10.54
2022-11-16T03:16:35.017Z,10.63
2022-11-16T03:18:50.665Z,10.69
2022-11-16T03:21:13.548Z,10.70
2022-11-16T03:23:29.083Z,10.72
2022-11-16T03:25:46.876Z,10.75
2022-11-16T03:28:05.800Z,10.76
2022-11-16T03:30:23.984Z,10.78
2022-11-16T03:32:45.456Z,10.81
2022-11-16T03:35:04.177Z,10.84
2022-11-16T03:37:18.900Z,10.88
2022-11-16T03:39:37.249Z,10.93
2022-11-16T03:41:53.277Z,11.00
2022-11-16T03:44:08.129Z,11.08
2022-11-16T03:46:22.344Z,11.16
2022-11-16T03:48:41.527Z,11.23
2022-11-16T03:50:59.219Z,11.27
2022-11-16T03:53:13.557Z,11.32
2022-11-16T03:55:26.944Z,11.34
2022-11-16T03:57:40.571Z,11.30
2022-11-16T03:59:54.107Z,11.25
2022-11-16T04:02:07.299Z,11.20
2022-11-16T04:04:36.418Z,11.17
2022-11-16T04:07:06.324Z,11.12
2022-11-16T04:09:36.000Z,11.07
2022-11-16T04:12:06.693Z,10.99
2022-11-16T04:14:43.115Z,10.93
2022-11-16T04:17:14.613Z,10.87
2022-11-16T04:19:45.492Z,10.81
2022-11-16T04:22:20.578Z,10.74
2022-11-16T04:24:38.340Z,10.66
2022-11-16T04:27:10.341Z,10.59
2022-11-16T04:29:25.172Z,10.54
2022-11-16T04:31:54.463Z,10.53
2022-11-16T04:34:24.142Z,10.52
2022-11-16T04:36:55.701Z,10.47
2022-11-16T04:39:09.187Z,10.42
2022-11-16T04:41:38.875Z,10.42
2022-11-16T04:43:52.302Z,10.44
2022-11-16T04:46:23.986Z,10.47
2022-11-16T04:48:37.561Z,10.50
2022-11-16T04:50:51.761Z,10.54
2022-11-16T04:53:05.279Z,10.57
2022-11-16T04:55:26.081Z,10.60
2022-11-16T04:57:39.624Z,10.64
2022-11-16T04:59:53.668Z,10.63
2022-11-16T05:02:14.058Z,10.62
2022-11-16T05:04:32.522Z,10.58
2022-11-16T05:06:47.124Z,10.54
2022-11-16T05:09:00.790Z,10.50
2022-11-16T05:11:14.442Z,10.48
2022-11-16T05:13:28.348Z,10.47
2022-11-16T05:15:41.605Z,10.45
2022-11-16T05:17:56.878Z,10.42
2022-11-16T05:20:30.111Z,10.37
2022-11-16T05:22:47.829Z,10.29
2022-11-16T05:25:01.753Z,10.24
2022-11-16T05:27:18.036Z,10.18
2022-11-16T05:29:32.282Z,10.13
2022-11-16T05:31:45.765Z,10.09
2022-11-16T05:33:59.201Z,10.03
2022-11-16T05:36:14.937Z,10.00
2022-11-16T05:38:28.591Z,10.02
2022-11-16T05:40:43.093Z,10.05
2022-11-16T05:42:57.013Z,10.07
2022-11-16T05:45:11.662Z,10.08
2022-11-16T05:47:25.875Z,10.08
2022-11-16T05:49:39.882Z,10.08
2022-11-16T05:51:54.360Z,10.09
2022-11-16T05:54:09.146Z,10.10
2022-11-16T05:56:22.900Z,10.09
2022-11-16T05:58:36.880Z,10.09
2022-11-16T06:00:52.609Z,10.05
2022-11-16T06:03:06.121Z,10.02
2022-11-16T06:05:19.854Z,9.99
2022-11-16T06:07:33.602Z,9.97
2022-11-16T06:09:47.652Z,9.94
2022-11-16T06:12:04.640Z,9.90
2022-11-16T06:14:18.965Z,9.89
2022-11-16T06:16:32.507Z,9.89
2022-11-16T06:18:48.486Z,9.88
2022-11-16T06:21:05.114Z,9.87
2022-11-16T06:23:18.439Z,9.89
2022-11-16T06:25:32.210Z,9.90
2022-11-16T06:27:45.531Z,9.93
2022-11-16T06:30:02.124Z,9.94
2022-11-16T06:32:16.042Z,9.92
2022-11-16T06:34:29.300Z,9.87
2022-11-16T06:36:42.539Z,9.83
2022-11-16T06:38:55.824Z,9.76
2022-11-16T06:41:09.435Z,9.69
2022-11-16T06:43:26.886Z,9.63
2022-11-16T06:45:40.480Z,9.59
2022-11-16T06:47:53.832Z,9.56
2022-11-16T06:50:07.916Z,9.54
2022-11-16T06:52:21.304Z,9.56
2022-11-16T06:54:34.677Z,9.59
2022-11-16T06:56:48.844Z,9.66
2022-11-16T06:59:04.017Z,9.73
2022-11-16T07:01:18.527Z,9.75
2022-11-16T07:03:32.958Z,9.73
2022-11-16T07:05:48.015Z,9.69
2022-11-16T07:08:02.577Z,9.63
2022-11-16T07:10:17.224Z,9.59
2022-11-16T07:12:30.767Z,9.55
2022-11-16T07:14:44.330Z,9.52
2022-11-16T07:17:00.343Z,9.47
2022-11-16T07:19:15.464Z,9.39
2022-11-16T07:21:28.998Z,9.38
2022-11-16T07:23:43.980Z,9.40
2022-11-16T07:26:02.883Z,9.44
2022-11-16T07:28:23.544Z,9.50
2022-11-16T07:30:36.693Z,9.56
2022-11-16T07:32:59.989Z,9.62
2022-11-16T07:35:36.214Z,9.64
2022-11-16T07:37:49.654Z,9.73
2022-11-16T07:40:03.413Z,9.84
2022-11-16T07:42:16.987Z,9.89
2022-11-16T07:44:53.135Z,9.92
2022-11-16T07:47:06.426Z,9.94
2022-11-16T07:49:23.216Z,9.96
2022-11-16T07:51:43.001Z,9.96
2022-11-16T07:54:03.957Z,9.96
2022-11-16T07:56:17.773Z,9.96
2022-11-16T07:58:31.658Z,9.94
2022-11-16T08:00:45.314Z,9.89
2022-11-16T08:03:00.142Z,9.85
2022-11-16T08:05:14.858Z,9.83
2022-11-16T08:07:28.382Z,9.80
2022-11-16T08:09:44.349Z,9.74
2022-11-16T08:12:00.231Z,9.66
2022-11-16T08:14:14.850Z,9.63
2022-11-16T08:16:28.996Z,9.61
2022-11-16T08:18:49.938Z,9.57
2022-11-16T08:21:04.970Z,9.56
2022-11-16T08:23:18.496Z,9.58
2022-11-16T08:25:32.287Z,9.60
2022-11-16T08:27:45.777Z,9.62
2022-11-16T08:29:59.342Z,9.65
2022-11-16T08:32:12.834Z,9.67
2022-11-16T08:34:26.315Z,9.67
2022-11-16T08:36:43.973Z,9.65
2022-11-16T08:38:59.250Z,9.63
2022-11-16T08:41:14.715Z,9.62
2022-11-16T08:43:28.452Z,9.61
2022-11-16T08:45:41.967Z,9.62
2022-11-16T08:48:03.448Z,9.60
2022-11-16T08:50:17.949Z,9.61
2022-11-16T08:52:31.338Z,9.60
2022-11-16T08:54:45.076Z,9.60
2022-11-16T08:56:58.499Z,9.60
2022-11-16T08:59:11.836Z,9.63
2022-11-16T09:01:30.438Z,9.64
2022-11-16T09:03:44.007Z,9.63
2022-11-16T09:05:57.268Z,9.64
2022-11-16T09:08:10.791Z,9.65
2022-11-16T09:10:26.368Z,9.65
2022-11-16T09:12:40.260Z,9.62
2022-11-16T09:14:53.630Z,9.59
2022-11-16T09:17:07.110Z,9.57
2022-11-16T09:19:21.670Z,9.57
2022-11-16T09:21:38.319Z,9.56
2022-11-16T09:23:52.310Z,9.55
2022-11-16T09:26:07.485Z,9.53
2022-11-16T09:28:21.530Z,9.49
2022-11-16T09:30:34.946Z,9.44
2022-11-16T09:32:48.272Z,9.40
2022-11-16T09:35:01.572Z,9.37
2022-11-16T09:37:14.920Z,9.33
2022-11-16T09:39:31.520Z,9.28
2022-11-16T09:42:01.797Z,9.23
2022-11-16T09:44:27.715Z,9.19
2022-11-16T09:46:44.840Z,9.18
2022-11-16T09:49:00.009Z,9.19
2022-11-16T09:51:15.944Z,9.20
2022-11-16T09:53:37.180Z,9.23
2022-11-16T09:55:54.824Z,9.27
2022-11-16T09:58:15.548Z,9.33
2022-11-16T10:00:30.853Z,9.38
2022-11-16T10:02:51.297Z,9.37
2022-11-16T10:05:16.692Z,9.37
2022-11-16T10:07:35.394Z,9.35
2022-11-16T10:09:50.139Z,9.31
2022-11-16T10:12:19.237Z,9.26
2022-11-16T10:14:58.821Z,9.21
2022-11-16T10:17:21.089Z,9.20
2022-11-16T10:19:42.777Z,9.23
2022-11-16T10:22:01.803Z,9.26
2022-11-16T10:24:35.491Z,9.26
2022-11-16T10:26:54.995Z,9.27
2022-11-16T10:29:25.385Z,9.27
2022-11-16T10:31:56.029Z,9.28
2022-11-16T10:34:15.122Z,9.28
2022-11-16T10:36:32.969Z,9.32
2022-11-16T10:38:47.809Z,9.33
2022-11-16T10:41:06.265Z,9.34
2022-11-16T10:43:20.635Z,9.35
2022-11-16T10:45:41.930Z,9.37
2022-11-16T10:48:00.446Z,9.35
2022-11-16T10:50:33.110Z,9.38
2022-11-16T10:52:46.927Z,9.42
2022-11-16T10:55:00.138Z,9.42
2022-11-16T10:57:19.826Z,9.46
2022-11-16T10:59:44.997Z,9.54
2022-11-16T11:01:58.969Z,9.59
2022-11-16T11:04:26.623Z,9.58
2022-11-16T11:06:44.944Z,9.54
2022-11-16T11:08:58.155Z,9.48
2022-11-16T11:11:41.469Z,9.43
2022-11-16T11:14:05.751Z,9.41
2022-11-16T11:16:23.199Z,9.36
2022-11-16T11:18:36.653Z,9.31
2022-11-16T11:20:52.272Z,9.28
2022-11-16T11:23:14.523Z,9.30
2022-11-16T11:25:32.153Z,9.37
2022-11-16T11:27:45.867Z,9.40
2022-11-16T11:30:01.757Z,9.42
2022-11-16T11:32:24.416Z,9.42
2022-11-16T11:34:44.017Z,9.40
2022-11-16T11:37:00.686Z,9.34
2022-11-16T11:39:30.019Z,9.28
2022-11-16T11:41:47.554Z,9.22
2022-11-16T11:44:10.234Z,9.18
2022-11-16T11:47:06.447Z,9.10
2022-11-16T11:49:12.378Z,8.99
2022-11-16T11:51:31.086Z,8.88
2022-11-16T11:53:55.407Z,8.77
2022-11-16T11:56:09.449Z,8.66
2022-11-16T11:58:23.918Z,8.56
2022-11-16T12:00:45.626Z,8.45
2022-11-16T12:03:21.643Z,8.33
2022-11-16T12:05:56.559Z,8.20
2022-11-16T12:08:27.627Z,8.05
2022-11-16T12:10:52.288Z,7.92
2022-11-16T12:13:24.671Z,7.78
2022-11-16T12:15:54.486Z,7.66
2022-11-16T12:18:17.861Z,7.56
2022-11-16T12:20:41.457Z,7.47
2022-11-16T12:23:18.242Z,7.39
2022-11-16T12:25:41.022Z,7.30
2022-11-16T12:28:07.771Z,7.22
2022-11-16T12:30:24.620Z,7.14
2022-11-16T12:32:59.109Z,7.06
2022-11-16T12:35:33.553Z,6.97
2022-11-16T12:37:53.709Z,6.90
2022-11-16T12:40:24.873Z,6.83
2022-11-16T12:42:49.772Z,6.78
2022-11-16T12:45:22.062Z,6.75
2022-11-16T12:47:43.943Z,6.73
2022-11-16T12:50:20.168Z,6.69
2022-11-16T12:53:00.983Z,6.66
2022-11-16T12:55:32.999Z,6.61
2022-11-16T12:57:55.215Z,6.56
2022-11-16T13:00:13.565Z,6.53
2022-11-16T13:02:39.658Z,6.52
2022-11-16T13:04:59.571Z,6.53
2022-11-16T13:07:17.034Z,6.54
2022-11-16T13:09:34.272Z,6.56
2022-11-16T13:11:51.623Z,6.57
2022-11-16T13:14:08.711Z,6.59
2022-11-16T13:16:22.972Z,6.60
2022-11-16T13:18:41.368Z,6.59
2022-11-16T13:20:59.682Z,6.55
2022-11-16T13:23:19.153Z,6.53
2022-11-16T13:25:40.366Z,6.50
2022-11-16T13:27:59.240Z,6.46
2022-11-16T13:30:22.557Z,6.44
2022-11-16T13:32:48.902Z,6.43
2022-11-16T13:35:02.692Z,6.42
2022-11-16T13:37:47.272Z,6.42
2022-11-16T13:40:35.266Z,6.47
2022-11-16T13:43:02.178Z,6.53
2022-11-16T13:45:24.205Z,6.59
2022-11-16T13:47:37.788Z,6.60
2022-11-16T13:49:57.830Z,6.59
2022-11-16T13:52:46.230Z,6.57
2022-11-16T13:54:48.247Z,6.54
2022-11-16T13:57:03.242Z,6.52
2022-11-16T13:59:27.372Z,6.52
2022-11-16T14:02:03.043Z,6.50
2022-11-16T14:04:44.289Z,6.44
2022-11-16T14:07:05.336Z,6.35
2022-11-16T14:09:52.477Z,6.28
2022-11-16T14:12:41.962Z,6.16
2022-11-16T14:15:17.085Z,6.03
2022-11-16T14:17:55.706Z,5.92
2022-11-16T14:20:09.582Z,5.80
2022-11-16T14:22:50.791Z,5.71
2022-11-16T14:25:12.012Z,5.60
2022-11-16T14:27:32.886Z,5.50
2022-11-16T14:29:59.553Z,5.40
2022-11-16T14:32:25.644Z,5.33
2022-11-16T14:34:47.195Z,5.27
2022-11-16T14:37:01.634Z,5.23
2022-11-16T14:39:34.343Z,5.18
2022-11-16T14:41:50.109Z,5.13
2022-11-16T14:44:03.497Z,5.09
2022-11-16T14:46:24.577Z,5.06
2022-11-16T14:48:45.490Z,5.02
2022-11-16T14:51:11.874Z,4.96
2022-11-16T14:53:25.890Z,4.90
2022-11-16T14:55:47.332Z,4.83
2022-11-16T15:00:31.649Z,4.72
2022-11-16T15:02:51.376Z,4.62
2022-11-16T15:05:05.411Z,4.58
2022-11-16T15:07:20.360Z,4.55
2022-11-16T15:09:37.301Z,4.55
2022-11-16T15:12:10.622Z,4.55
2022-11-16T15:14:28.528Z,4.52
2022-11-16T15:16:54.989Z,4.49
2022-11-16T15:19:15.634Z,4.46
2022-11-16T15:21:30.498Z,4.43
2022-11-16T15:24:15.646Z,4.42
2022-11-16T15:26:28.245Z,4.40
2022-11-16T15:28:49.752Z,4.38
2022-11-16T15:31:05.705Z,4.36
2022-11-16T15:33:26.544Z,4.34
2022-11-16T15:35:41.675Z,4.32
2022-11-16T15:38:03.341Z,4.30
2022-11-16T15:40:16.665Z,4.30
2022-11-16T15:42:32.740Z,4.30
2022-11-16T15:44:47.004Z,4.30
2022-11-16T15:47:01.883Z,4.30
2022-11-16T15:49:24.261Z,4.29
2022-11-16T15:51:37.575Z,4.29
2022-11-16T15:53:52.235Z,4.29
2022-11-16T15:56:05.934Z,4.28
2022-11-16T15:58:27.650Z,4.29
2022-11-16T16:00:42.594Z,4.29
2022-11-16T16:02:58.279Z,4.31
2022-11-16T16:05:24.090Z,4.32
2022-11-16T16:07:51.414Z,4.34
2022-11-16T16:10:25.485Z,4.35
2022-11-16T16:12:50.297Z,4.36
2022-11-16T16:15:27.281Z,4.36
2022-11-16T16:17:40.694Z,4.36
2022-11-16T16:20:00.562Z,4.37
2022-11-16T16:22:28.737Z,4.37
2022-11-16T16:24:47.140Z,4.37
2022-11-16T16:27:00.494Z,4.39
2022-11-16T16:29:13.858Z,4.41
2022-11-16T16:31:27.360Z,4.46
2022-11-16T16:33:41.558Z,4.53
2022-11-16T16:35:54.948Z,4.61
2022-11-16T16:38:16.092Z,4.69
2022-11-16T16:40:29.615Z,4.78
2022-11-16T16:42:44.370Z,4.88
2022-11-16T16:44:59.252Z,4.98
2022-11-16T16:47:13.973Z,5.10
2022-11-16T16:49:32.632Z,5.21
2022-11-16T16:51:50.380Z,5.34
2022-11-16T16:54:10.584Z,5.46
2022-11-16T16:56:28.025Z,5.57
2022-11-16T16:58:51.956Z,5.69
2022-11-16T17:01:16.646Z,5.80
2022-11-16T17:03:36.883Z,5.89
2022-11-16T17:05:54.316Z,5.98
2022-11-16T17:08:12.254Z,6.08
2022-11-16T17:10:28.770Z,6.18
2022-11-16T17:12:44.868Z,6.26
2022-11-16T17:15:02.248Z,6.33
2022-11-16T17:17:26.450Z,6.41
2022-11-16T17:19:42.667Z,6.48
2022-11-16T17:22:02.625Z,6.56
2022-11-16T17:24:22.115Z,6.63
2022-11-16T17:26:38.374Z,6.71
2022-11-16T17:29:00.730Z,6.79
2022-11-16T17:31:18.980Z,6.85
2022-11-16T17:33:43.919Z,6.92
2022-11-16T17:36:10.984Z,7.01
2022-11-16T17:38:25.388Z,7.09
2022-11-16T17:40:45.538Z,7.17
2022-11-16T17:43:07.939Z,7.26
2022-11-16T17:45:34.272Z,7.34
2022-11-16T17:47:55.853Z,7.42
2022-11-16T17:50:17.634Z,7.52
2022-11-16T17:52:35.791Z,7.64
2022-11-16T17:55:06.465Z,7.74
2022-11-16T17:57:25.907Z,7.87
2022-11-16T17:59:42.286Z,7.99
2022-11-16T18:01:56.475Z,8.10
2022-11-16T18:04:13.757Z,8.22
2022-11-16T18:06:30.057Z,8.37
2022-11-16T18:08:44.874Z,8.56
2022-11-16T18:10:58.801Z,8.74
2022-11-16T18:13:12.688Z,8.94
2022-11-16T18:15:28.778Z,9.14
2022-11-16T18:17:43.717Z,9.32
2022-11-16T18:19:57.126Z,9.49
2022-11-16T18:22:10.494Z,9.63
2022-11-16T18:24:23.977Z,9.77
2022-11-16T18:26:38.016Z,9.88
2022-11-16T18:28:52.972Z,9.98
2022-11-16T18:31:11.696Z,10.08
2022-11-16T18:33:30.789Z,10.15
2022-11-16T18:35:44.119Z,10.23
2022-11-16T18:37:57.783Z,10.29
2022-11-16T18:40:13.473Z,10.37
2022-11-16T18:42:26.788Z,10.45
2022-11-16T18:44:40.114Z,10.52
2022-11-16T18:46:53.357Z,10.60
2022-11-16T18:49:06.519Z,10.68
2022-11-16T18:51:20.701Z,10.75
2022-11-16T18:53:35.541Z,10.82
2022-11-16T18:55:57.584Z,10.86
2022-11-16T18:58:28.858Z,10.89
2022-11-16T19:00:44.623Z,10.92
2022-11-16T19:02:57.926Z,10.93
2022-11-16T19:05:12.085Z,10.94
2022-11-16T19:07:25.422Z,10.95
2022-11-16T19:09:38.669Z,10.96
2022-11-16T19:11:52.876Z,10.98
2022-11-16T19:14:08.732Z,11.02
2022-11-16T19:16:22.044Z,11.06
2022-11-16T19:18:35.312Z,11.12
2022-11-16T19:20:48.534Z,11.16
2022-11-16T19:23:03.355Z,11.19
2022-11-16T19:25:17.146Z,11.21
2022-11-16T19:27:30.449Z,11.25
2022-11-16T19:29:43.678Z,11.29
2022-11-16T19:31:56.968Z,11.35
2022-11-16T19:34:11.496Z,11.39
2022-11-16T19:36:25.287Z,11.46
2022-11-16T19:38:38.725Z,11.50
2022-11-16T19:40:52.975Z,11.56
2022-11-16T19:43:06.212Z,11.61
2022-11-16T19:45:19.877Z,11.65
2022-11-16T19:47:33.252Z,11.69
2022-11-16T19:49:47.418Z,11.73
2022-11-16T19:52:01.391Z,11.77
2022-11-16T19:54:16.102Z,11.79
2022-11-16T19:56:30.374Z,11.81
2022-11-16T19:58:44.250Z,11.82
2022-11-16T20:01:03.335Z,11.81
2022-11-16T20:03:16.579Z,11.79
2022-11-16T20:05:31.359Z,11.80
2022-11-16T20:07:46.013Z,11.81
2022-11-16T20:09:59.821Z,11.82
2022-11-16T20:12:13.330Z,11.80
2022-11-16T20:14:26.664Z,11.82
2022-11-16T20:16:41.808Z,11.86
2022-11-16T20:18:55.809Z,11.89
2022-11-16T20:21:10.298Z,11.90
2022-11-16T20:23:23.517Z,11.91
2022-11-16T20:25:36.851Z,11.94
2022-11-16T20:27:50.135Z,11.95
2022-11-16T20:30:09.050Z,11.99
2022-11-16T20:32:23.516Z,12.04
2022-11-16T20:34:36.793Z,12.05
2022-11-16T20:36:52.147Z,12.09
2022-11-16T20:39:05.707Z,12.10
2022-11-16T20:41:19.657Z,12.14
2022-11-16T20:43:33.428Z,12.14
2022-11-16T20:45:46.822Z,12.10
2022-11-16T20:48:02.246Z,12.08
2022-11-16T20:50:16.026Z,12.08
2022-11-16T20:52:29.209Z,12.11
2022-11-16T20:54:42.544Z,12.13
2022-11-16T20:56:55.814Z,12.13
2022-11-16T20:59:09.065Z,12.16
2022-11-16T21:01:29.287Z,12.18
2022-11-16T21:03:43.663Z,12.19
2022-11-16T21:05:58.463Z,12.20
2022-11-16T21:08:12.101Z,12.24
2022-11-16T21:10:26.102Z,12.27
2022-11-16T21:12:55.832Z,12.30
2022-11-16T21:15:09.737Z,12.39
2022-11-16T21:17:23.076Z,12.46
2022-11-16T21:19:36.889Z,12.49
2022-11-16T21:21:50.146Z,12.53
2022-11-16T21:24:03.564Z,12.59
2022-11-16T21:26:17.956Z,12.66
2022-11-16T21:28:31.250Z,12.70
2022-11-16T21:30:44.490Z,12.73
2022-11-16T21:32:57.827Z,12.76
2022-11-16T21:35:12.823Z,12.81
2022-11-16T21:37:25.998Z,12.90
2022-11-16T21:39:39.204Z,12.94
2022-11-16T21:41:52.400Z,12.98
2022-11-16T21:44:05.624Z,13.07
2022-11-16T21:46:20.076Z,13.10
2022-11-16T21:48:34.218Z,13.14
2022-11-16T21:50:48.739Z,13.19
2022-11-16T21:53:02.096Z,13.19
2022-11-16T21:55:15.881Z,13.19
2022-11-16T21:57:29.168Z,13.20
2022-11-16T21:59:45.427Z,13.21
2022-11-16T22:02:04.803Z,13.23
2022-11-16T22:04:34.486Z,13.17
2022-11-16T22:07:04.079Z,13.17
2022-11-16T22:09:18.119Z,13.20
2022-11-16T22:11:31.566Z,13.21
2022-11-16T22:13:45.385Z,13.23
2022-11-16T22:15:59.024Z,13.29
2022-11-16T22:18:12.409Z,13.26
2022-11-16T22:20:26.137Z,13.17
2022-11-16T22:22:39.413Z,13.15
2022-11-16T22:24:52.740Z,13.13
2022-11-16T22:27:06.274Z,13.13
2022-11-16T22:29:19.508Z,13.15
2022-11-16T22:31:33.836Z,13.18
2022-11-16T22:33:47.257Z,13.21
2022-11-16T22:36:00.371Z,13.22
2022-11-16T22:38:13.528Z,13.25
2022-11-16T22:40:26.838Z,13.25
2022-11-16T22:42:39.987Z,13.20
2022-11-16T22:44:53.150Z,13.19
2022-11-16T22:47:06.733Z,13.18
2022-11-16T22:49:20.054Z,13.16
2022-11-16T22:51:34.124Z,13.18
2022-11-16T22:53:47.296Z,13.17
2022-11-16T22:56:06.105Z,13.17
2022-11-16T22:58:19.282Z,13.15
2022-11-16T23:00:34.191Z,13.10
2022-11-16T23:02:49.615Z,13.13
2022-11-16T23:05:02.879Z,13.14
2022-11-16T23:07:16.146Z,13.11
2022-11-16T23:09:29.518Z,13.11
2022-11-16T23:11:59.221Z,13.15
2022-11-16T23:14:33.009Z,13.17
2022-11-16T23:16:47.567Z,13.19
2022-11-16T23:19:01.437Z,13.19
2022-11-16T23:21:31.658Z,13.21
2022-11-16T23:24:06.574Z,13.20
2022-11-16T23:26:43.753Z,13.20
2022-11-16T23:28:56.980Z,13.12
2022-11-16T23:31:10.319Z,13.04
2022-11-16T23:33:45.641Z,12.93
2022-11-16T23:35:59.247Z,12.87
2022-11-16T23:38:13.597Z,12.84
2022-11-16T23:40:29.147Z,12.83
2022-11-16T23:43:03.553Z,12.81
2022-11-16T23:45:22.278Z,12.79
2022-11-16T23:47:37.291Z,12.76
2022-11-16T23:49:50.592Z,12.71
2022-11-16T23:52:03.982Z,12.65
2022-11-16T23:54:17.242Z,12.59
2022-11-16T23:56:34.834Z,12.52
2022-11-16T23:58:52.464Z,12.47
